createdAt,value
2023-02-02T00:00:48.857Z,101913.22
2023-02-02T00:05:54.295Z,101929.69
2023-02-02T00:10:57.268Z,101928.75
2023-02-02T00:16:00.149Z,101948.69
2023-02-02T00:21:04.610Z,101949.56
2023-02-02T00:26:07.425Z,101956.47
2023-02-02T00:31:10.440Z,101961.66
2023-02-02T00:36:14.756Z,101963.38
2023-02-02T00:41:17.846Z,101959.84
2023-02-02T00:46:20.965Z,101968.50
2023-02-02T00:51:25.196Z,101965.91
2023-02-02T00:56:28.087Z,101971.09
2023-02-02T01:01:30.918Z,101967.59
2023-02-02T01:06:35.284Z,101971.91
2023-02-02T01:11:38.370Z,101962.34
2023-02-02T01:16:41.212Z,101957.13
2023-02-02T01:21:46.256Z,101958.91
2023-02-02T01:26:49.194Z,101951.13
2023-02-02T01:31:52.299Z,101952.03
2023-02-02T01:36:56.558Z,101930.38
2023-02-02T01:41:59.411Z,101921.66
2023-02-02T01:47:03.878Z,101895.66
2023-02-02T01:52:10.091Z,101876.59
2023-02-02T01:57:16.022Z,101844.53
2023-02-02T02:02:19.247Z,101831.53
2023-02-02T02:07:23.837Z,101807.31
2023-02-02T02:12:26.883Z,101792.56
2023-02-02T02:17:40.888Z,101788.25
2023-02-02T02:23:26.729Z,101781.31
2023-02-02T02:28:44.054Z,101782.16
2023-02-02T02:33:52.678Z,101782.16
2023-02-02T02:39:00.265Z,101772.66
2023-02-02T02:44:09.654Z,101770.03
2023-02-02T02:49:15.363Z,101767.44
2023-02-02T02:54:21.022Z,101767.47
2023-02-02T02:59:34.173Z,101754.47
2023-02-02T03:04:41.805Z,101765.72
2023-02-02T03:09:45.501Z,101783.97
2023-02-02T03:14:48.330Z,101780.50
2023-02-02T03:19:52.547Z,101784.81
2023-02-02T03:24:56.938Z,101778.75
2023-02-02T03:30:00.016Z,101771.84
2023-02-02T03:35:04.461Z,101775.31
2023-02-02T03:40:08.222Z,101784.84
2023-02-02T03:45:12.005Z,101802.19
2023-02-02T03:50:16.198Z,101804.78
2023-02-02T03:55:19.092Z,101803.09
2023-02-02T04:00:22.555Z,101824.75
2023-02-02T04:05:27.877Z,101839.47
2023-02-02T04:10:30.722Z,101865.50
2023-02-02T04:15:33.551Z,101894.94
2023-02-02T04:20:37.746Z,101910.59
2023-02-02T04:25:40.559Z,101932.28
2023-02-02T04:30:43.512Z,101927.91
2023-02-02T04:35:47.780Z,101932.28
2023-02-02T04:40:51.039Z,101921.84
2023-02-02T04:45:56.599Z,101921.03
2023-02-02T04:51:25.259Z,101925.28
2023-02-02T04:56:30.750Z,101932.28
2023-02-02T05:01:33.594Z,101940.09
2023-02-02T05:06:37.879Z,101945.31
2023-02-02T05:11:44.499Z,101936.63
2023-02-02T05:16:47.358Z,101946.19
2023-02-02T05:21:51.660Z,101937.50
2023-02-02T05:26:58.556Z,101940.97
2023-02-02T05:32:01.561Z,101966.97
2023-02-02T05:37:06.284Z,101946.16
2023-02-02T05:42:10.207Z,101934.88
2023-02-02T05:47:13.097Z,101939.22
2023-02-02T05:52:19.293Z,101927.06
2023-02-02T05:57:22.095Z,101913.16
2023-02-02T06:02:24.928Z,101920.97
2023-02-02T06:07:29.158Z,101901.00
2023-02-02T06:12:32.000Z,101910.53
2023-02-02T06:17:34.898Z,101901.88
2023-02-02T06:22:39.048Z,101893.22
2023-02-02T06:27:41.913Z,101896.66
2023-02-02T06:32:44.738Z,101895.75
2023-02-02T06:37:49.172Z,101899.22
2023-02-02T06:42:56.960Z,101885.34
2023-02-02T06:48:00.902Z,101875.81
2023-02-02T06:53:05.567Z,101880.19
2023-02-02T06:58:08.414Z,101884.47
2023-02-02T07:03:11.183Z,101881.88
2023-02-02T07:08:16.943Z,101891.41
2023-02-02T07:13:19.800Z,101892.28
2023-02-02T07:18:22.911Z,101906.19
2023-02-02T07:23:27.142Z,101912.25
2023-02-02T07:28:30.079Z,101914.78
2023-02-02T07:33:38.671Z,101933.91
2023-02-02T07:38:43.059Z,101936.47
2023-02-02T07:43:48.133Z,101952.09
2023-02-02T07:48:55.676Z,101963.41
2023-02-02T07:54:00.106Z,101946.91
2023-02-02T07:59:02.924Z,101971.19
2023-02-02T08:04:06.043Z,101989.41
2023-02-02T08:09:10.979Z,102003.25
2023-02-02T08:14:18.254Z,102014.53
2023-02-02T08:19:21.153Z,102033.59
2023-02-02T08:24:25.450Z,102043.13
2023-02-02T08:29:28.263Z,102044.84
2023-02-02T08:34:31.224Z,102070.13
2023-02-02T08:39:36.098Z,102073.63
2023-02-02T08:45:00.683Z,102080.53
2023-02-02T08:50:02.106Z,102095.31
2023-02-02T08:55:07.181Z,102098.03
2023-02-02T09:00:11.792Z,102098.09
2023-02-02T09:05:17.414Z,102107.75
2023-02-02T09:10:21.785Z,102118.19
2023-02-02T09:15:24.881Z,102131.25
2023-02-02T09:20:27.965Z,102154.69
2023-02-02T09:25:32.543Z,102163.38
2023-02-02T09:30:35.497Z,102152.94
2023-02-02T09:35:38.312Z,102149.50
2023-02-02T09:40:42.707Z,102156.53
2023-02-02T09:45:49.937Z,102157.41
2023-02-02T09:50:54.427Z,102168.69
2023-02-02T09:56:00.674Z,102183.38
2023-02-02T10:01:06.376Z,102190.31
2023-02-02T10:06:17.604Z,102193.81
2023-02-02T10:11:29.294Z,102204.28
2023-02-02T10:16:32.486Z,102209.47
2023-02-02T10:21:40.988Z,102216.47
2023-02-02T10:26:48.432Z,102223.47
2023-02-02T10:31:59.908Z,102222.63
2023-02-02T10:37:21.518Z,102229.56
2023-02-02T10:42:33.619Z,102228.78
2023-02-02T10:47:36.731Z,102230.53
2023-02-02T10:52:40.991Z,102243.56
2023-02-02T10:58:01.727Z,102234.94
2023-02-02T11:03:07.159Z,102245.31
2023-02-02T11:08:14.606Z,102240.06
2023-02-02T11:13:26.814Z,102248.78
2023-02-02T11:18:33.657Z,102247.03
2023-02-02T11:23:37.367Z,102252.22
2023-02-02T11:28:41.697Z,102241.75
2023-02-02T11:33:44.540Z,102248.78
2023-02-02T11:38:47.433Z,102241.03
2023-02-02T11:43:53.821Z,102248.00
2023-02-02T11:49:00.783Z,102235.75
2023-02-02T11:54:07.014Z,102246.19
2023-02-02T11:59:31.624Z,102246.19
2023-02-02T12:04:36.033Z,102238.41
2023-02-02T12:09:38.920Z,102238.34
2023-02-02T12:14:48.678Z,102229.63
2023-02-02T12:20:12.922Z,102233.16
2023-02-02T12:25:35.609Z,102228.78
2023-02-02T12:30:43.872Z,102231.38
2023-02-02T12:35:56.795Z,102227.00
2023-02-02T12:41:13.969Z,102220.03
2023-02-02T12:46:41.678Z,102209.63
2023-02-02T12:51:56.705Z,102207.88
2023-02-02T12:57:05.042Z,102219.06
2023-02-02T13:02:18.387Z,102213.84
2023-02-02T13:07:35.638Z,102203.41
2023-02-02T13:12:42.144Z,102202.47
2023-02-02T13:17:49.992Z,102198.13
2023-02-02T13:22:55.543Z,102201.56
2023-02-02T13:28:00.036Z,102185.91
2023-02-02T13:33:07.324Z,102172.81
2023-02-02T13:38:17.106Z,102149.38
2023-02-02T13:43:26.631Z,102131.06
2023-02-02T13:48:35.805Z,102119.78
2023-02-02T13:53:50.653Z,102098.00
2023-02-02T13:59:09.890Z,102081.47
2023-02-02T14:04:23.181Z,102071.06
2023-02-02T14:09:27.523Z,102061.53
2023-02-02T14:14:35.166Z,102060.66
2023-02-02T14:19:55.935Z,102044.22
2023-02-02T14:24:58.794Z,102039.88
2023-02-02T14:30:02.181Z,102037.25
2023-02-02T14:35:38.558Z,102033.84
2023-02-02T14:40:48.690Z,102021.72
2023-02-02T14:46:34.165Z,102024.25
2023-02-02T14:51:49.775Z,102029.50
2023-02-02T14:56:58.042Z,102025.94
2023-02-02T15:02:07.586Z,102038.13
2023-02-02T15:07:53.844Z,102035.53
2023-02-02T15:13:06.546Z,102041.63
2023-02-02T15:18:18.331Z,102047.72
2023-02-02T15:23:26.684Z,102044.25
2023-02-02T15:28:39.308Z,102046.88
2023-02-02T15:33:44.196Z,102037.34
2023-02-02T15:38:49.451Z,102046.97
2023-02-02T15:43:53.679Z,102059.09
2023-02-02T15:49:35.183Z,102069.53
2023-02-02T15:54:39.120Z,102086.88
2023-02-02T15:59:43.967Z,102105.06
2023-02-02T16:04:46.852Z,102123.28
2023-02-02T16:09:50.018Z,102109.41
2023-02-02T16:14:55.380Z,102129.44
2023-02-02T16:20:01.845Z,102153.72
2023-02-02T16:25:10.963Z,102165.88
2023-02-02T16:30:24.848Z,102183.22
2023-02-02T16:35:36.789Z,102185.81
2023-02-02T16:40:39.742Z,102188.34
2023-02-02T16:45:48.105Z,102204.81
2023-02-02T16:51:05.185Z,102229.97
2023-02-02T16:56:08.830Z,102232.69
2023-02-02T17:01:16.655Z,102237.91
2023-02-02T17:06:29.595Z,102243.13
2023-02-02T17:11:34.137Z,102256.16
2023-02-02T17:16:38.360Z,102264.88
2023-02-02T17:21:41.133Z,102254.47
2023-02-02T17:26:45.065Z,102261.47
2023-02-02T17:31:49.334Z,102249.31
2023-02-02T17:36:54.150Z,102258.97
2023-02-02T17:41:57.054Z,102261.56
2023-02-02T17:47:01.163Z,102262.53
2023-02-02T17:52:03.944Z,102259.91
2023-02-02T17:57:06.734Z,102250.38
2023-02-02T18:02:13.602Z,102242.56
2023-02-02T18:07:16.371Z,102251.25
2023-02-02T18:12:19.827Z,102253.88
2023-02-02T18:17:23.999Z,102267.75
2023-02-02T18:22:27.053Z,102264.28
2023-02-02T18:27:30.288Z,102268.63
2023-02-02T18:32:37.375Z,102265.16
2023-02-02T18:37:40.283Z,102272.97
2023-02-02T18:42:43.108Z,102279.03
2023-02-02T18:47:47.354Z,102258.25
2023-02-02T18:52:50.108Z,102253.94
2023-02-02T18:57:52.868Z,102261.75
2023-02-02T19:02:56.966Z,102255.63
2023-02-02T19:07:59.792Z,102264.28
2023-02-02T19:13:11.802Z,102254.75
2023-02-02T19:18:17.639Z,102245.19
2023-02-02T19:23:23.143Z,102253.88
2023-02-02T19:28:28.204Z,102253.94
2023-02-02T19:33:38.927Z,102251.38
2023-02-02T19:38:41.988Z,102260.94
2023-02-02T19:43:47.747Z,102279.16
2023-02-02T19:48:53.844Z,102293.94
2023-02-02T19:54:00.199Z,102301.75
2023-02-02T19:59:03.048Z,102308.69
2023-02-02T20:04:12.246Z,102302.63
2023-02-02T20:09:17.377Z,102298.28
2023-02-02T20:14:29.408Z,102290.53
2023-02-02T20:19:36.893Z,102305.31
2023-02-02T20:24:40.761Z,102317.44
2023-02-02T20:29:45.036Z,102301.75
2023-02-02T20:34:51.142Z,102290.44
2023-02-02T20:39:56.711Z,102286.13
2023-02-02T20:44:59.505Z,102287.84
2023-02-02T20:50:04.111Z,102285.25
2023-02-02T20:55:07.673Z,102266.13
2023-02-02T21:00:13.562Z,102260.06
2023-02-02T21:05:17.940Z,102250.50
2023-02-02T21:10:20.783Z,102258.31
2023-02-02T21:15:23.618Z,102259.16
2023-02-02T21:20:28.144Z,102255.63
2023-02-02T21:25:31.086Z,102262.56
2023-02-02T21:30:33.929Z,102260.81
2023-02-02T21:35:38.134Z,102267.75
2023-02-02T21:40:41.495Z,102290.31
2023-02-02T21:45:45.387Z,102288.56
2023-02-02T21:50:49.554Z,102275.47
2023-02-02T21:55:54.775Z,102270.16
2023-02-02T22:00:59.705Z,102293.56
2023-02-02T22:06:24.177Z,102278.03
2023-02-02T22:11:31.137Z,102278.09
2023-02-02T22:16:38.474Z,102263.34
2023-02-02T22:21:42.603Z,102229.56
2023-02-02T22:26:45.379Z,102232.16
2023-02-02T22:31:48.726Z,102220.88
2023-02-02T22:36:53.042Z,102198.31
2023-02-02T22:41:55.852Z,102190.50
2023-02-02T22:46:58.672Z,102162.63
2023-02-02T22:52:04.381Z,102170.44
2023-02-02T22:57:07.223Z,102160.00
2023-02-02T23:02:10.057Z,102144.38
2023-02-02T23:07:14.214Z,102153.06
2023-02-02T23:12:17.042Z,102144.41
2023-02-02T23:17:19.851Z,102136.50
2023-02-02T23:22:23.985Z,102149.44
2023-02-02T23:27:26.777Z,102156.34
2023-02-02T23:32:29.728Z,102141.59
2023-02-02T23:37:33.886Z,102139.94
2023-02-02T23:42:37.484Z,102139.97
2023-02-02T23:47:40.443Z,102145.16
2023-02-02T23:52:46.247Z,102160.81
2023-02-02T23:57:49.027Z,102175.63
